createdAt,value
2022-08-22T00:00:15.358Z,4.10
2022-08-22T00:03:00.472Z,3.30
2022-08-22T00:03:17.634Z,4.30
2022-08-22T00:06:14.878Z,4.50
2022-08-22T00:09:27.253Z,4.50
2022-08-22T00:12:18.690Z,4.90
2022-08-22T00:15:03.223Z,4.90
2022-08-22T00:17:54.112Z,4.80
2022-08-22T00:20:44.035Z,4.80
2022-08-22T00:23:31.395Z,5.30
2022-08-22T00:26:37.343Z,4.70
2022-08-22T00:30:01.221Z,5.10
2022-08-22T00:32:56.924Z,5.30
2022-08-22T00:35:58.689Z,5.30
2022-08-22T00:38:39.166Z,5.00
2022-08-22T00:41:44.897Z,5.20
2022-08-22T00:44:54.756Z,5.00
2022-08-22T00:47:40.770Z,5.20
2022-08-22T00:50:55.395Z,5.40
2022-08-22T00:54:17.994Z,5.50
2022-08-22T00:57:32.187Z,5.60
2022-08-22T01:00:24.828Z,6.20
2022-08-22T01:03:34.720Z,6.30
2022-08-22T01:06:21.224Z,6.70
2022-08-22T01:09:12.893Z,6.00
2022-08-22T01:12:08.160Z,7.10
2022-08-22T01:14:59.353Z,6.70
2022-08-22T01:17:35.702Z,7.70
2022-08-22T01:20:49.226Z,6.40
2022-08-22T01:24:02.726Z,6.80
2022-08-22T01:26:57.693Z,7.40
2022-08-22T01:29:54.466Z,8.00
2022-08-22T01:33:14.528Z,7.70
2022-08-22T01:36:21.629Z,8.60
2022-08-22T01:39:37.415Z,8.50
2022-08-22T01:42:35.774Z,7.80
2022-08-22T01:45:37.637Z,9.00
2022-08-22T01:48:27.296Z,8.10
2022-08-22T01:51:21.358Z,8.20
2022-08-22T01:54:08.772Z,9.20
2022-08-22T01:56:48.446Z,8.40
2022-08-22T01:59:46.236Z,8.00
2022-08-22T02:03:06.448Z,8.60
2022-08-22T02:06:02.956Z,8.20
2022-08-22T02:09:38.245Z,8.40
2022-08-22T02:12:21.652Z,8.60
2022-08-22T02:15:07.505Z,8.60
2022-08-22T02:18:01.146Z,8.90
2022-08-22T02:20:57.944Z,8.50
2022-08-22T02:23:32.445Z,8.10
2022-08-22T02:26:51.440Z,8.60
2022-08-22T02:29:49.058Z,8.20
2022-08-22T02:32:49.928Z,8.40
2022-08-22T02:35:48.010Z,10.30
2022-08-22T02:38:59.534Z,8.80
2022-08-22T02:41:40.097Z,9.50
2022-08-22T02:47:13.570Z,8.80
2022-08-22T02:50:19.847Z,8.90
2022-08-22T02:53:04.125Z,9.50
2022-08-22T02:55:51.301Z,8.60
2022-08-22T02:58:45.603Z,8.60
2022-08-22T03:01:34.481Z,8.80
2022-08-22T03:04:38.384Z,9.10
2022-08-22T03:07:25.938Z,8.50
2022-08-22T03:10:20.636Z,8.60
2022-08-22T03:13:02.390Z,8.30
2022-08-22T03:15:54.850Z,8.70
2022-08-22T03:18:49.782Z,8.50
2022-08-22T03:21:31.673Z,8.60
2022-08-22T03:24:20.404Z,9.10
2022-08-22T03:27:44.659Z,7.90
2022-08-22T03:30:36.125Z,8.40
2022-08-22T03:33:27.704Z,8.80
2022-08-22T03:36:31.402Z,8.30
2022-08-22T03:39:20.092Z,7.80
2022-08-22T03:42:04.772Z,8.10
2022-08-22T03:45:03.894Z,7.60
2022-08-22T03:48:18.431Z,7.70
2022-08-22T03:51:35.569Z,7.90
2022-08-22T03:54:48.164Z,8.10
2022-08-22T03:57:48.112Z,8.00
2022-08-22T04:00:26.805Z,7.40
2022-08-22T04:03:39.740Z,7.60
2022-08-22T04:06:53.748Z,7.30
2022-08-22T04:09:52.240Z,7.20
2022-08-22T04:12:48.833Z,7.70
2022-08-22T04:15:30.525Z,8.20
2022-08-22T04:18:33.506Z,7.90
2022-08-22T04:21:28.202Z,7.80
2022-08-22T04:24:33.298Z,8.70
2022-08-22T04:27:16.701Z,8.20
2022-08-22T04:30:16.385Z,8.20
2022-08-22T04:33:01.970Z,8.20
2022-08-22T04:35:59.331Z,7.80
2022-08-22T04:38:51.864Z,7.90
2022-08-22T04:42:16.266Z,8.00
2022-08-22T04:45:06.237Z,8.10
2022-08-22T04:48:09.253Z,7.90
2022-08-22T04:51:00.733Z,8.60
2022-08-22T04:53:50.726Z,9.00
2022-08-22T04:56:39.519Z,9.30
2022-08-22T04:59:21.139Z,9.40
2022-08-22T05:02:08.664Z,9.40
2022-08-22T05:04:54.323Z,9.70
2022-08-22T05:07:38.014Z,10.00
2022-08-22T05:10:30.864Z,9.30
2022-08-22T05:13:19.984Z,10.60
2022-08-22T05:16:02.271Z,10.00
2022-08-22T05:18:45.932Z,10.10
2022-08-22T05:21:30.742Z,10.80
2022-08-22T05:24:14.238Z,10.40
2022-08-22T05:26:57.115Z,10.60
2022-08-22T05:29:35.644Z,10.80
2022-08-22T05:32:25.407Z,10.40
2022-08-22T05:35:06.048Z,10.30
2022-08-22T05:37:51.035Z,10.50
2022-08-22T05:40:31.487Z,10.50
2022-08-22T05:43:17.303Z,10.70
2022-08-22T05:45:55.936Z,10.30
2022-08-22T05:49:02.711Z,10.10
2022-08-22T05:51:53.314Z,11.70
2022-08-22T05:54:34.974Z,11.10
2022-08-22T06:00:15.109Z,11.30
2022-08-22T06:03:22.196Z,10.80
2022-08-22T06:06:06.656Z,9.80
2022-08-22T06:09:07.329Z,9.30
2022-08-22T06:12:15.048Z,9.10
2022-08-22T06:15:25.729Z,9.80
2022-08-22T06:18:12.437Z,9.20
2022-08-22T06:21:05.984Z,9.60
2022-08-22T06:23:51.562Z,10.80
2022-08-22T06:26:40.156Z,9.90
2022-08-22T06:29:26.053Z,9.40
2022-08-22T06:32:03.361Z,9.20
2022-08-22T06:34:48.213Z,10.10
2022-08-22T06:37:36.579Z,8.30
2022-08-22T06:40:17.314Z,8.30
2022-08-22T06:45:38.380Z,7.60
2022-08-22T06:48:21.965Z,7.40
2022-08-22T06:51:05.557Z,7.90
2022-08-22T06:53:55.080Z,7.80
2022-08-22T06:56:44.766Z,8.90
2022-08-22T06:59:26.269Z,7.70
2022-08-22T07:02:14.033Z,7.40
2022-08-22T07:04:55.501Z,7.50
2022-08-22T07:07:31.999Z,7.50
2022-08-22T07:10:13.566Z,7.50
2022-08-22T07:12:56.426Z,7.20
2022-08-22T07:15:39.790Z,7.20
2022-08-22T07:18:23.789Z,7.10
2022-08-22T07:21:06.164Z,6.90
2022-08-22T07:23:50.723Z,7.20
2022-08-22T07:26:42.949Z,6.80
2022-08-22T07:29:36.989Z,6.20
2022-08-22T07:32:19.182Z,6.30
2022-08-22T07:35:11.841Z,6.20
2022-08-22T07:38:19.471Z,6.50
2022-08-22T07:41:05.179Z,6.30
2022-08-22T07:43:49.473Z,5.60
2022-08-22T07:46:41.086Z,5.60
2022-08-22T07:49:25.477Z,5.70
2022-08-22T07:52:11.296Z,5.80
2022-08-22T07:55:09.600Z,6.50
2022-08-22T07:58:06.593Z,6.00
2022-08-22T08:00:48.882Z,6.40
2022-08-22T08:03:32.132Z,6.10
2022-08-22T08:06:10.609Z,6.10
2022-08-22T08:08:48.302Z,6.50
2022-08-22T08:11:26.534Z,5.90
2022-08-22T08:14:10.080Z,6.10
2022-08-22T08:17:16.930Z,5.80
2022-08-22T08:19:54.976Z,5.50
2022-08-22T08:22:32.691Z,6.20
2022-08-22T08:25:13.080Z,5.50
2022-08-22T08:28:11.467Z,6.90
2022-08-22T08:31:01.820Z,5.60
2022-08-22T08:33:37.539Z,5.80
2022-08-22T08:36:56.831Z,5.60
2022-08-22T08:39:41.374Z,5.70
2022-08-22T08:42:58.517Z,5.60
2022-08-22T08:45:56.401Z,5.30
2022-08-22T08:49:06.678Z,5.80
2022-08-22T08:51:51.623Z,5.40
2022-08-22T08:54:56.022Z,5.40
2022-08-22T08:57:52.380Z,5.20
2022-08-22T09:00:48.902Z,4.80
2022-08-22T09:04:01.735Z,5.70
2022-08-22T09:06:56.592Z,4.80
2022-08-22T09:09:57.507Z,5.00
2022-08-22T09:13:26.088Z,5.30
2022-08-22T09:19:07.039Z,4.40
2022-08-22T09:22:21.428Z,4.60
2022-08-22T09:25:36.808Z,4.60
2022-08-22T09:28:55.477Z,4.60
2022-08-22T09:32:07.166Z,5.30
2022-08-22T09:34:53.263Z,5.00
2022-08-22T09:37:37.729Z,4.60
2022-08-22T09:40:16.361Z,4.70
2022-08-22T09:40:33.368Z,4.80
2022-08-22T09:43:24.270Z,4.80
2022-08-22T09:46:18.672Z,4.80
2022-08-22T09:49:05.531Z,4.80
2022-08-22T09:52:33.909Z,4.70
2022-08-22T09:55:35.530Z,5.30
2022-08-22T09:58:41.694Z,5.00
2022-08-22T10:01:47.878Z,4.90
2022-08-22T10:04:32.187Z,4.90
2022-08-22T10:07:23.099Z,4.70
2022-08-22T10:10:21.452Z,4.80
2022-08-22T10:13:14.862Z,4.90
2022-08-22T10:16:19.087Z,4.80
2022-08-22T10:19:05.371Z,4.90
2022-08-22T10:21:45.719Z,5.00
2022-08-22T10:25:08.371Z,5.30
2022-08-22T10:28:21.261Z,5.40
2022-08-22T10:31:27.450Z,5.50
2022-08-22T10:34:28.700Z,5.20
2022-08-22T10:37:50.365Z,4.60
2022-08-22T10:40:31.673Z,5.00
2022-08-22T10:43:48.041Z,5.10
2022-08-22T10:46:38.307Z,5.10
2022-08-22T10:49:22.588Z,6.00
2022-08-22T10:52:15.773Z,5.20
2022-08-22T10:55:22.683Z,5.60
2022-08-22T10:58:10.776Z,5.40
2022-08-22T11:01:37.035Z,5.70
2022-08-22T11:04:33.975Z,5.50
2022-08-22T11:07:29.644Z,5.50
2022-08-22T11:10:11.999Z,5.80
2022-08-22T11:13:16.438Z,5.80
2022-08-22T11:16:20.213Z,5.50
2022-08-22T11:19:15.851Z,6.10
2022-08-22T11:22:03.649Z,6.30
2022-08-22T11:25:08.942Z,6.40
2022-08-22T11:28:05.495Z,6.30
2022-08-22T11:31:14.618Z,6.00
2022-08-22T11:34:13.718Z,6.30
2022-08-22T11:36:57.272Z,6.90
2022-08-22T11:39:42.444Z,6.40
2022-08-22T11:42:59.095Z,7.10
2022-08-22T11:45:47.992Z,7.20
2022-08-22T11:48:48.709Z,6.40
2022-08-22T11:52:00.437Z,6.30
2022-08-22T11:54:48.068Z,6.00
2022-08-22T11:57:39.078Z,7.20
2022-08-22T12:00:31.724Z,6.40
2022-08-22T12:03:39.839Z,6.40
2022-08-22T12:06:47.236Z,6.00
2022-08-22T12:09:47.696Z,5.90
2022-08-22T12:12:26.696Z,5.90
2022-08-22T12:15:13.980Z,5.80
2022-08-22T12:18:10.902Z,5.80
2022-08-22T12:21:18.873Z,5.20
2022-08-22T12:24:21.446Z,6.00
2022-08-22T12:27:11.706Z,5.90
2022-08-22T12:30:21.223Z,4.90
2022-08-22T12:33:26.870Z,4.50
2022-08-22T12:36:18.015Z,5.50
2022-08-22T12:39:28.924Z,5.20
2022-08-22T12:42:13.303Z,5.20
2022-08-22T12:45:08.103Z,5.00
2022-08-22T12:48:24.895Z,4.80
2022-08-22T12:51:18.321Z,5.60
2022-08-22T12:54:21.616Z,5.60
2022-08-22T12:56:54.163Z,5.20
2022-08-22T12:59:36.213Z,5.50
2022-08-22T13:02:23.638Z,6.30
2022-08-22T13:05:27.584Z,5.20
2022-08-22T13:08:12.998Z,5.50
2022-08-22T13:10:57.049Z,5.10
2022-08-22T13:13:38.927Z,5.10
2022-08-22T13:16:20.856Z,4.80
2022-08-22T13:19:07.868Z,5.00
2022-08-22T13:21:55.061Z,5.30
2022-08-22T13:24:40.983Z,4.80
2022-08-22T13:27:40.621Z,5.20
2022-08-22T13:30:37.588Z,5.10
2022-08-22T13:33:41.498Z,5.30
2022-08-22T13:36:24.129Z,5.10
2022-08-22T13:39:19.711Z,5.20
2022-08-22T13:42:04.439Z,4.80
2022-08-22T13:44:55.978Z,5.00
2022-08-22T13:47:34.551Z,4.90
2022-08-22T13:50:26.736Z,5.00
2022-08-22T13:53:37.369Z,5.30
2022-08-22T13:56:22.424Z,5.10
2022-08-22T13:59:03.740Z,5.20
2022-08-22T14:01:56.734Z,5.00
2022-08-22T14:04:36.690Z,5.00
2022-08-22T14:07:13.021Z,5.30
2022-08-22T14:10:14.987Z,4.90
2022-08-22T14:12:58.981Z,5.30
2022-08-22T14:15:44.907Z,4.90
2022-08-22T14:18:45.685Z,5.10
2022-08-22T14:21:33.498Z,4.80
2022-08-22T14:24:27.027Z,5.10
2022-08-22T14:27:17.656Z,4.80
2022-08-22T14:30:00.230Z,4.80
2022-08-22T14:32:53.498Z,5.20
2022-08-22T14:35:52.675Z,5.20
2022-08-22T14:38:33.574Z,4.80
2022-08-22T14:41:19.779Z,5.50
2022-08-22T14:43:59.064Z,4.90
2022-08-22T14:46:48.995Z,5.30
2022-08-22T14:49:30.902Z,3.80
2022-08-22T14:52:19.619Z,4.60
2022-08-22T14:55:15.836Z,3.10
2022-08-22T14:57:58.687Z,2.90
2022-08-22T15:00:41.983Z,2.80
2022-08-22T15:03:42.720Z,2.80
2022-08-22T15:06:38.198Z,3.10
2022-08-22T15:09:36.965Z,3.40
2022-08-22T15:12:28.470Z,3.30
2022-08-22T15:15:09.385Z,3.10
2022-08-22T15:17:54.590Z,3.00
2022-08-22T15:20:45.253Z,3.10
2022-08-22T15:23:29.943Z,3.10
2022-08-22T15:26:13.312Z,3.10
2022-08-22T15:29:00.218Z,3.50
2022-08-22T15:31:39.702Z,3.20
2022-08-22T15:34:33.608Z,3.00
2022-08-22T15:37:21.078Z,3.10
2022-08-22T15:40:12.509Z,3.10
2022-08-22T15:42:55.723Z,3.20
2022-08-22T15:45:39.031Z,3.00
2022-08-22T15:48:34.613Z,3.20
2022-08-22T15:51:17.337Z,3.50
2022-08-22T15:54:16.591Z,3.10
2022-08-22T15:57:21.520Z,3.60
2022-08-22T16:00:12.012Z,3.40
2022-08-22T16:03:12.054Z,3.90
2022-08-22T16:06:07.566Z,2.90
2022-08-22T16:08:55.502Z,3.20
2022-08-22T16:11:37.081Z,3.40
2022-08-22T16:14:21.545Z,3.40
2022-08-22T16:17:10.564Z,3.20
2022-08-22T16:19:47.865Z,3.10
2022-08-22T16:22:27.970Z,3.00
2022-08-22T16:25:07.103Z,3.90
2022-08-22T16:27:59.052Z,3.50
2022-08-22T16:30:40.343Z,3.50
2022-08-22T16:33:33.310Z,3.30
2022-08-22T16:36:25.464Z,3.50
2022-08-22T16:39:01.303Z,3.30
2022-08-22T16:41:43.926Z,3.60
2022-08-22T16:49:59.345Z,3.50
2022-08-22T16:52:33.729Z,4.20
2022-08-22T16:55:36.609Z,3.90
2022-08-22T16:58:56.920Z,3.20
2022-08-22T17:02:00.997Z,3.50
2022-08-22T17:04:54.570Z,3.70
2022-08-22T17:07:44.431Z,3.50
2022-08-22T17:10:17.968Z,3.40
2022-08-22T17:13:09.928Z,3.30
2022-08-22T17:16:01.529Z,3.40
2022-08-22T17:18:55.890Z,3.40
2022-08-22T17:21:34.126Z,3.60
2022-08-22T17:24:32.090Z,3.50
2022-08-22T17:27:34.710Z,3.20
2022-08-22T17:30:34.912Z,3.40
2022-08-22T17:33:31.582Z,3.40
2022-08-22T17:36:50.441Z,3.30
2022-08-22T17:40:19.820Z,3.60
2022-08-22T17:43:42.992Z,3.30
2022-08-22T17:46:44.629Z,4.20
2022-08-22T17:49:20.035Z,3.70
2022-08-22T17:52:24.425Z,3.30
2022-08-22T17:55:24.022Z,3.50
2022-08-22T17:58:31.870Z,3.70
2022-08-22T18:01:33.598Z,4.10
2022-08-22T18:04:25.750Z,4.10
2022-08-22T18:07:30.524Z,4.10
2022-08-22T18:10:09.173Z,4.00
2022-08-22T18:13:04.761Z,4.20
2022-08-22T18:16:11.702Z,4.00
2022-08-22T18:19:22.372Z,4.30
2022-08-22T18:22:38.370Z,4.20
2022-08-22T18:25:25.535Z,3.80
2022-08-22T18:28:19.061Z,4.60
2022-08-22T18:31:14.008Z,4.00
2022-08-22T18:34:03.267Z,5.00
2022-08-22T18:36:54.846Z,3.90
2022-08-22T18:39:50.848Z,4.10
2022-08-22T18:42:41.897Z,4.40
2022-08-22T18:45:50.199Z,3.70
2022-08-22T18:48:33.455Z,4.70
2022-08-22T18:51:30.617Z,4.30
2022-08-22T18:54:09.974Z,4.20
2022-08-22T18:57:11.029Z,4.00
2022-08-22T19:00:05.557Z,4.30
2022-08-22T19:03:17.580Z,4.20
2022-08-22T19:06:07.408Z,4.40
2022-08-22T19:09:28.563Z,4.20
2022-08-22T19:12:25.880Z,4.60
2022-08-22T19:15:12.242Z,3.70
2022-08-22T19:18:01.237Z,4.60
2022-08-22T19:20:59.894Z,4.10
2022-08-22T19:23:42.204Z,3.90
2022-08-22T19:26:21.641Z,4.60
2022-08-22T19:29:10.879Z,5.50
2022-08-22T19:31:45.110Z,4.50
2022-08-22T19:34:30.507Z,4.00
2022-08-22T19:37:32.861Z,4.30
2022-08-22T19:40:12.915Z,4.20
2022-08-22T19:42:52.535Z,4.90
2022-08-22T19:45:34.763Z,5.00
2022-08-22T19:48:14.969Z,4.70
2022-08-22T19:51:35.624Z,5.00
2022-08-22T19:54:23.482Z,5.20
2022-08-22T19:57:16.706Z,4.50
2022-08-22T20:00:14.938Z,4.50
2022-08-22T20:03:03.704Z,4.70
2022-08-22T20:05:57.028Z,5.00
2022-08-22T20:08:47.657Z,4.50
2022-08-22T20:11:26.071Z,4.30
2022-08-22T20:14:30.693Z,4.20
2022-08-22T20:17:25.509Z,4.90
2022-08-22T20:20:41.207Z,4.90
2022-08-22T20:23:28.312Z,5.40
2022-08-22T20:26:07.807Z,4.80
2022-08-22T20:28:41.205Z,4.90
2022-08-22T20:31:29.162Z,4.90
2022-08-22T20:34:15.679Z,4.40
2022-08-22T20:37:16.072Z,4.90
2022-08-22T20:39:59.243Z,4.50
2022-08-22T20:42:38.117Z,4.60
2022-08-22T20:45:29.595Z,5.20
2022-08-22T20:48:14.448Z,5.00
2022-08-22T20:50:56.059Z,4.30
2022-08-22T20:53:35.787Z,4.80
2022-08-22T20:56:12.349Z,4.40
2022-08-22T20:58:53.157Z,4.70
2022-08-22T21:01:29.757Z,4.80
2022-08-22T21:04:10.553Z,4.60
2022-08-22T21:06:50.375Z,4.50
2022-08-22T21:09:46.789Z,4.60
2022-08-22T21:12:26.592Z,4.90
2022-08-22T21:15:08.484Z,4.70
2022-08-22T21:17:51.007Z,4.80
2022-08-22T21:20:36.799Z,4.50
2022-08-22T21:23:18.396Z,4.60
2022-08-22T21:25:57.119Z,4.70
2022-08-22T21:28:38.057Z,4.80
2022-08-22T21:31:19.583Z,4.80
2022-08-22T21:33:58.174Z,4.60
2022-08-22T21:36:39.083Z,4.70
2022-08-22T21:39:32.637Z,4.10
2022-08-22T21:42:18.569Z,4.80
2022-08-22T21:45:05.087Z,4.70
2022-08-22T21:47:45.904Z,5.20
2022-08-22T21:50:27.836Z,4.90
2022-08-22T21:53:12.053Z,4.70
2022-08-22T21:55:53.952Z,5.30
2022-08-22T21:58:37.367Z,4.60
2022-08-22T22:01:29.067Z,5.00
2022-08-22T22:04:07.197Z,5.10
2022-08-22T22:06:42.597Z,4.70
2022-08-22T22:09:25.598Z,4.60
2022-08-22T22:12:10.240Z,5.20
2022-08-22T22:14:53.051Z,5.10
2022-08-22T22:17:31.927Z,5.20
2022-08-22T22:20:12.385Z,5.40
2022-08-22T22:22:58.112Z,5.10
2022-08-22T22:25:42.128Z,5.10
2022-08-22T22:28:20.540Z,5.20
2022-08-22T22:31:02.760Z,5.20
2022-08-22T22:33:42.026Z,4.90
2022-08-22T22:36:29.987Z,5.00
2022-08-22T22:39:11.772Z,4.80
2022-08-22T22:41:51.502Z,5.00
2022-08-22T22:44:29.980Z,5.10
2022-08-22T22:47:11.869Z,5.40
2022-08-22T22:49:52.381Z,5.20
2022-08-22T22:52:33.940Z,5.00
2022-08-22T22:55:24.143Z,4.70
2022-08-22T22:58:03.883Z,4.60
2022-08-22T23:00:47.356Z,4.70
2022-08-22T23:03:25.142Z,4.70
2022-08-22T23:06:05.724Z,4.90
2022-08-22T23:08:47.000Z,4.70
2022-08-22T23:11:31.198Z,5.00
2022-08-22T23:14:13.117Z,5.00
2022-08-22T23:16:50.623Z,4.80
2022-08-22T23:19:30.599Z,4.60
2022-08-22T23:22:11.066Z,5.00
2022-08-22T23:24:50.985Z,5.20
2022-08-22T23:27:31.749Z,4.30
2022-08-22T23:30:14.434Z,5.10
2022-08-22T23:32:57.951Z,4.50
2022-08-22T23:35:40.208Z,4.70
2022-08-22T23:38:21.403Z,4.80
2022-08-22T23:41:01.351Z,4.40
2022-08-22T23:43:40.894Z,5.50
2022-08-22T23:46:21.890Z,5.30
2022-08-22T23:49:00.355Z,4.90
2022-08-22T23:51:40.294Z,4.40
2022-08-22T23:54:20.922Z,5.20
2022-08-22T23:57:03.782Z,4.70
2022-08-22T23:59:57.914Z,4.40
